sensor_id;sensor_type;location;lat;lon;timestamp;P1;durP1;ratioP1;P2;durP2;ratioP2
84984;SDS011;75299;50.018;20.014;2024-01-27T00:01:42;4.15;;;2.10;;
84984;SDS011;75299;50.018;20.014;2024-01-27T00:05:01;4.78;;;2.20;;
84984;SDS011;75299;50.018;20.014;2024-01-27T00:08:20;4.90;;;1.65;;
84984;SDS011;75299;50.018;20.014;2024-01-27T00:11:38;4.68;;;2.03;;
84984;SDS011;75299;50.018;20.014;2024-01-27T00:14:56;2.78;;;1.25;;
84984;SDS011;75299;50.018;20.014;2024-01-27T00:18:14;3.43;;;1.40;;
84984;SDS011;75299;50.018;20.014;2024-01-27T00:21:32;1.53;;;1.00;;
84984;SDS011;75299;50.018;20.014;2024-01-27T00:24:51;3.60;;;1.28;;
84984;SDS011;75299;50.018;20.014;2024-01-27T00:28:10;4.20;;;1.50;;
84984;SDS011;75299;50.018;20.014;2024-01-27T00:31:27;4.78;;;1.28;;
84984;SDS011;75299;50.018;20.014;2024-01-27T00:34:45;7.35;;;1.50;;
84984;SDS011;75299;50.018;20.014;2024-01-27T00:38:03;3.80;;;1.33;;
84984;SDS011;75299;50.018;20.014;2024-01-27T00:41:21;4.98;;;1.13;;
84984;SDS011;75299;50.018;20.014;2024-01-27T00:44:38;3.85;;;1.30;;
84984;SDS011;75299;50.018;20.014;2024-01-27T00:47:56;4.48;;;1.20;;
84984;SDS011;75299;50.018;20.014;2024-01-27T00:51:15;7.10;;;1.70;;
84984;SDS011;75299;50.018;20.014;2024-01-27T00:54:33;4.98;;;1.60;;
84984;SDS011;75299;50.018;20.014;2024-01-27T00:57:50;4.83;;;1.40;;
84984;SDS011;75299;50.018;20.014;2024-01-27T01:01:08;6.43;;;1.40;;
84984;SDS011;75299;50.018;20.014;2024-01-27T01:04:26;6.90;;;1.63;;
84984;SDS011;75299;50.018;20.014;2024-01-27T01:07:45;5.48;;;1.60;;
84984;SDS011;75299;50.018;20.014;2024-01-27T01:11:02;5.53;;;1.50;;
84984;SDS011;75299;50.018;20.014;2024-01-27T01:14:20;9.00;;;2.28;;
84984;SDS011;75299;50.018;20.014;2024-01-27T01:17:38;8.45;;;2.45;;
84984;SDS011;75299;50.018;20.014;2024-01-27T01:20:57;8.85;;;2.65;;
84984;SDS011;75299;50.018;20.014;2024-01-27T01:24:14;9.13;;;1.83;;
84984;SDS011;75299;50.018;20.014;2024-01-27T01:27:32;5.30;;;2.00;;
84984;SDS011;75299;50.018;20.014;2024-01-27T01:30:50;4.28;;;1.70;;
84984;SDS011;75299;50.018;20.014;2024-01-27T01:34:08;7.45;;;2.10;;
84984;SDS011;75299;50.018;20.014;2024-01-27T01:37:26;7.38;;;2.15;;
84984;SDS011;75299;50.018;20.014;2024-01-27T01:40:43;9.15;;;2.58;;
84984;SDS011;75299;50.018;20.014;2024-01-27T01:44:01;6.28;;;1.80;;
84984;SDS011;75299;50.018;20.014;2024-01-27T01:47:19;7.23;;;2.18;;
84984;SDS011;75299;50.018;20.014;2024-01-27T01:50:37;7.45;;;2.35;;
84984;SDS011;75299;50.018;20.014;2024-01-27T01:53:57;8.03;;;2.33;;
84984;SDS011;75299;50.018;20.014;2024-01-27T01:57:15;8.00;;;2.18;;
84984;SDS011;75299;50.018;20.014;2024-01-27T02:00:33;7.83;;;2.13;;
84984;SDS011;75299;50.018;20.014;2024-01-27T02:03:53;7.40;;;1.98;;
84984;SDS011;75299;50.018;20.014;2024-01-27T02:07:12;8.78;;;1.85;;
84984;SDS011;75299;50.018;20.014;2024-01-27T02:10:30;8.00;;;2.13;;
84984;SDS011;75299;50.018;20.014;2024-01-27T02:13:49;9.43;;;2.13;;
84984;SDS011;75299;50.018;20.014;2024-01-27T02:17:07;10.53;;;2.55;;
84984;SDS011;75299;50.018;20.014;2024-01-27T02:20:24;8.83;;;1.73;;
84984;SDS011;75299;50.018;20.014;2024-01-27T02:23:42;10.80;;;2.75;;
84984;SDS011;75299;50.018;20.014;2024-01-27T02:27:00;9.68;;;2.13;;
84984;SDS011;75299;50.018;20.014;2024-01-27T02:30:18;9.38;;;2.60;;
84984;SDS011;75299;50.018;20.014;2024-01-27T02:33:37;9.33;;;1.98;;
84984;SDS011;75299;50.018;20.014;2024-01-27T02:36:54;7.05;;;2.23;;
84984;SDS011;75299;50.018;20.014;2024-01-27T02:40:13;7.88;;;2.23;;
84984;SDS011;75299;50.018;20.014;2024-01-27T02:43:32;15.33;;;2.78;;
84984;SDS011;75299;50.018;20.014;2024-01-27T02:46:50;5.80;;;1.95;;
84984;SDS011;75299;50.018;20.014;2024-01-27T02:50:08;8.78;;;2.13;;
84984;SDS011;75299;50.018;20.014;2024-01-27T02:53:27;10.90;;;2.28;;
84984;SDS011;75299;50.018;20.014;2024-01-27T02:56:44;11.75;;;2.65;;
84984;SDS011;75299;50.018;20.014;2024-01-27T03:00:02;7.80;;;1.80;;
84984;SDS011;75299;50.018;20.014;2024-01-27T03:03:22;7.20;;;1.98;;
84984;SDS011;75299;50.018;20.014;2024-01-27T03:06:41;10.33;;;2.25;;
84984;SDS011;75299;50.018;20.014;2024-01-27T03:09:59;13.60;;;2.60;;
84984;SDS011;75299;50.018;20.014;2024-01-27T03:13:17;9.18;;;2.33;;
84984;SDS011;75299;50.018;20.014;2024-01-27T03:16:35;9.73;;;2.55;;
84984;SDS011;75299;50.018;20.014;2024-01-27T03:19:53;9.53;;;2.25;;
84984;SDS011;75299;50.018;20.014;2024-01-27T03:23:11;7.78;;;1.73;;
84984;SDS011;75299;50.018;20.014;2024-01-27T03:26:29;9.00;;;2.20;;
84984;SDS011;75299;50.018;20.014;2024-01-27T03:29:47;11.20;;;2.08;;
84984;SDS011;75299;50.018;20.014;2024-01-27T03:33:05;12.90;;;2.63;;
84984;SDS011;75299;50.018;20.014;2024-01-27T03:36:23;11.00;;;2.25;;
84984;SDS011;75299;50.018;20.014;2024-01-27T03:39:42;13.28;;;2.48;;
84984;SDS011;75299;50.018;20.014;2024-01-27T03:43:00;7.60;;;2.10;;
84984;SDS011;75299;50.018;20.014;2024-01-27T03:46:18;6.48;;;2.00;;
84984;SDS011;75299;50.018;20.014;2024-01-27T03:49:37;11.25;;;2.70;;
84984;SDS011;75299;50.018;20.014;2024-01-27T03:52:55;11.80;;;2.98;;
84984;SDS011;75299;50.018;20.014;2024-01-27T03:56:13;10.13;;;2.48;;
84984;SDS011;75299;50.018;20.014;2024-01-27T03:59:31;10.70;;;2.70;;
84984;SDS011;75299;50.018;20.014;2024-01-27T04:02:48;14.05;;;2.73;;
84984;SDS011;75299;50.018;20.014;2024-01-27T04:06:06;9.63;;;2.70;;
84984;SDS011;75299;50.018;20.014;2024-01-27T04:09:24;9.38;;;1.98;;
84984;SDS011;75299;50.018;20.014;2024-01-27T04:12:43;12.63;;;2.95;;
84984;SDS011;75299;50.018;20.014;2024-01-27T04:16:01;10.23;;;2.38;;
84984;SDS011;75299;50.018;20.014;2024-01-27T04:19:20;9.03;;;2.00;;
84984;SDS011;75299;50.018;20.014;2024-01-27T04:22:38;13.83;;;3.40;;
84984;SDS011;75299;50.018;20.014;2024-01-27T04:25:56;16.20;;;2.83;;
84984;SDS011;75299;50.018;20.014;2024-01-27T04:29:14;11.63;;;2.40;;
84984;SDS011;75299;50.018;20.014;2024-01-27T04:32:32;12.48;;;2.73;;
84984;SDS011;75299;50.018;20.014;2024-01-27T04:35:52;12.03;;;2.93;;
84984;SDS011;75299;50.018;20.014;2024-01-27T04:39:10;7.65;;;2.60;;
84984;SDS011;75299;50.018;20.014;2024-01-27T04:42:28;8.43;;;2.28;;
84984;SDS011;75299;50.018;20.014;2024-01-27T04:45:47;9.98;;;2.43;;
84984;SDS011;75299;50.018;20.014;2024-01-27T04:49:05;11.28;;;2.73;;
84984;SDS011;75299;50.018;20.014;2024-01-27T04:52:23;10.98;;;2.58;;
84984;SDS011;75299;50.018;20.014;2024-01-27T04:55:40;10.25;;;2.53;;
84984;SDS011;75299;50.018;20.014;2024-01-27T04:58:58;9.75;;;2.43;;
84984;SDS011;75299;50.018;20.014;2024-01-27T05:02:16;10.53;;;2.83;;
84984;SDS011;75299;50.018;20.014;2024-01-27T05:05:34;7.50;;;2.53;;
84984;SDS011;75299;50.018;20.014;2024-01-27T05:08:54;14.53;;;3.55;;
84984;SDS011;75299;50.018;20.014;2024-01-27T05:12:12;9.73;;;2.80;;
84984;SDS011;75299;50.018;20.014;2024-01-27T05:15:30;12.20;;;3.15;;
84984;SDS011;75299;50.018;20.014;2024-01-27T05:18:48;14.25;;;3.55;;
84984;SDS011;75299;50.018;20.014;2024-01-27T05:22:06;12.73;;;2.88;;
84984;SDS011;75299;50.018;20.014;2024-01-27T05:25:24;14.03;;;3.10;;
84984;SDS011;75299;50.018;20.014;2024-01-27T05:28:42;15.35;;;3.20;;
84984;SDS011;75299;50.018;20.014;2024-01-27T05:31:59;12.78;;;3.10;;
84984;SDS011;75299;50.018;20.014;2024-01-27T05:35:18;16.03;;;3.70;;
84984;SDS011;75299;50.018;20.014;2024-01-27T05:38:36;14.80;;;2.90;;
84984;SDS011;75299;50.018;20.014;2024-01-27T05:41:54;15.55;;;3.45;;
84984;SDS011;75299;50.018;20.014;2024-01-27T05:45:12;16.63;;;3.43;;
84984;SDS011;75299;50.018;20.014;2024-01-27T05:48:31;15.98;;;3.65;;
84984;SDS011;75299;50.018;20.014;2024-01-27T05:51:49;12.33;;;3.23;;
84984;SDS011;75299;50.018;20.014;2024-01-27T05:55:07;14.60;;;2.93;;
84984;SDS011;75299;50.018;20.014;2024-01-27T05:58:25;11.83;;;2.73;;
84984;SDS011;75299;50.018;20.014;2024-01-27T06:01:46;11.50;;;3.53;;
84984;SDS011;75299;50.018;20.014;2024-01-27T06:05:06;21.58;;;3.63;;
84984;SDS011;75299;50.018;20.014;2024-01-27T06:08:24;17.13;;;3.63;;
84984;SDS011;75299;50.018;20.014;2024-01-27T06:11:42;16.35;;;3.63;;
84984;SDS011;75299;50.018;20.014;2024-01-27T06:15:00;11.05;;;3.40;;
84984;SDS011;75299;50.018;20.014;2024-01-27T06:18:19;12.18;;;2.95;;
84984;SDS011;75299;50.018;20.014;2024-01-27T06:21:37;12.68;;;3.05;;
84984;SDS011;75299;50.018;20.014;2024-01-27T06:24:54;12.70;;;2.95;;
84984;SDS011;75299;50.018;20.014;2024-01-27T06:28:12;17.60;;;2.95;;
84984;SDS011;75299;50.018;20.014;2024-01-27T06:31:30;9.05;;;2.60;;
84984;SDS011;75299;50.018;20.014;2024-01-27T06:34:48;10.85;;;2.83;;
84984;SDS011;75299;50.018;20.014;2024-01-27T06:38:05;13.98;;;2.85;;
84984;SDS011;75299;50.018;20.014;2024-01-27T06:41:23;16.50;;;4.33;;
84984;SDS011;75299;50.018;20.014;2024-01-27T06:44:41;11.53;;;2.68;;
84984;SDS011;75299;50.018;20.014;2024-01-27T06:47:59;13.30;;;3.73;;
84984;SDS011;75299;50.018;20.014;2024-01-27T06:51:17;18.40;;;3.70;;
84984;SDS011;75299;50.018;20.014;2024-01-27T06:54:35;11.13;;;2.88;;
84984;SDS011;75299;50.018;20.014;2024-01-27T06:57:54;20.05;;;2.93;;
84984;SDS011;75299;50.018;20.014;2024-01-27T07:01:11;10.18;;;2.90;;
84984;SDS011;75299;50.018;20.014;2024-01-27T07:04:29;11.65;;;3.45;;
84984;SDS011;75299;50.018;20.014;2024-01-27T07:07:46;13.68;;;3.23;;
84984;SDS011;75299;50.018;20.014;2024-01-27T07:11:04;11.75;;;2.83;;
84984;SDS011;75299;50.018;20.014;2024-01-27T07:14:25;18.10;;;3.75;;
84984;SDS011;75299;50.018;20.014;2024-01-27T07:17:43;12.15;;;3.10;;
84984;SDS011;75299;50.018;20.014;2024-01-27T07:21:01;13.93;;;2.93;;
84984;SDS011;75299;50.018;20.014;2024-01-27T07:24:20;14.78;;;2.93;;
84984;SDS011;75299;50.018;20.014;2024-01-27T07:27:38;13.48;;;3.85;;
84984;SDS011;75299;50.018;20.014;2024-01-27T07:30:55;15.10;;;3.03;;
84984;SDS011;75299;50.018;20.014;2024-01-27T07:34:13;13.25;;;3.10;;
84984;SDS011;75299;50.018;20.014;2024-01-27T07:37:31;11.95;;;4.25;;
84984;SDS011;75299;50.018;20.014;2024-01-27T07:40:49;19.00;;;4.10;;
84984;SDS011;75299;50.018;20.014;2024-01-27T07:44:10;15.70;;;3.60;;
84984;SDS011;75299;50.018;20.014;2024-01-27T07:47:29;12.05;;;3.18;;
84984;SDS011;75299;50.018;20.014;2024-01-27T07:50:47;9.50;;;2.53;;
84984;SDS011;75299;50.018;20.014;2024-01-27T07:54:06;12.75;;;3.85;;
84984;SDS011;75299;50.018;20.014;2024-01-27T07:57:23;14.75;;;2.93;;
84984;SDS011;75299;50.018;20.014;2024-01-27T08:00:41;12.18;;;2.63;;
84984;SDS011;75299;50.018;20.014;2024-01-27T08:04:02;13.65;;;2.88;;
84984;SDS011;75299;50.018;20.014;2024-01-27T08:07:22;14.55;;;3.15;;
84984;SDS011;75299;50.018;20.014;2024-01-27T08:10:40;22.95;;;3.33;;
84984;SDS011;75299;50.018;20.014;2024-01-27T08:13:59;18.63;;;3.25;;
84984;SDS011;75299;50.018;20.014;2024-01-27T08:17:16;20.95;;;3.58;;
84984;SDS011;75299;50.018;20.014;2024-01-27T08:20:35;16.38;;;3.53;;
84984;SDS011;75299;50.018;20.014;2024-01-27T08:23:53;12.83;;;2.55;;
84984;SDS011;75299;50.018;20.014;2024-01-27T08:27:11;8.90;;;2.68;;
84984;SDS011;75299;50.018;20.014;2024-01-27T08:30:31;13.58;;;3.10;;
84984;SDS011;75299;50.018;20.014;2024-01-27T08:33:50;18.68;;;3.48;;
84984;SDS011;75299;50.018;20.014;2024-01-27T08:37:15;10.43;;;3.00;;
84984;SDS011;75299;50.018;20.014;2024-01-27T08:40:35;10.35;;;2.85;;
84984;SDS011;75299;50.018;20.014;2024-01-27T08:43:53;19.10;;;3.18;;
84984;SDS011;75299;50.018;20.014;2024-01-27T08:47:11;13.15;;;2.80;;
84984;SDS011;75299;50.018;20.014;2024-01-27T08:50:30;14.18;;;3.38;;
84984;SDS011;75299;50.018;20.014;2024-01-27T08:53:48;16.25;;;3.28;;
84984;SDS011;75299;50.018;20.014;2024-01-27T08:57:06;11.00;;;3.48;;
84984;SDS011;75299;50.018;20.014;2024-01-27T09:00:24;13.85;;;3.58;;
84984;SDS011;75299;50.018;20.014;2024-01-27T09:03:42;16.20;;;3.38;;
84984;SDS011;75299;50.018;20.014;2024-01-27T09:06:59;13.15;;;4.15;;
84984;SDS011;75299;50.018;20.014;2024-01-27T09:10:17;18.33;;;4.20;;
84984;SDS011;75299;50.018;20.014;2024-01-27T09:13:37;10.05;;;3.20;;
84984;SDS011;75299;50.018;20.014;2024-01-27T09:16:57;12.25;;;3.50;;
84984;SDS011;75299;50.018;20.014;2024-01-27T09:20:16;13.83;;;3.10;;
84984;SDS011;75299;50.018;20.014;2024-01-27T09:23:35;14.95;;;3.58;;
84984;SDS011;75299;50.018;20.014;2024-01-27T09:26:53;13.33;;;2.88;;
84984;SDS011;75299;50.018;20.014;2024-01-27T09:30:12;13.68;;;3.60;;
84984;SDS011;75299;50.018;20.014;2024-01-27T09:33:31;15.63;;;3.70;;
84984;SDS011;75299;50.018;20.014;2024-01-27T09:36:50;13.05;;;3.13;;
84984;SDS011;75299;50.018;20.014;2024-01-27T09:40:09;12.90;;;3.28;;
84984;SDS011;75299;50.018;20.014;2024-01-27T09:43:29;146.48;;;9.80;;
84984;SDS011;75299;50.018;20.014;2024-01-27T09:46:47;18.18;;;3.70;;
84984;SDS011;75299;50.018;20.014;2024-01-27T09:50:06;19.68;;;3.48;;
84984;SDS011;75299;50.018;20.014;2024-01-27T09:53:27;12.48;;;3.50;;
84984;SDS011;75299;50.018;20.014;2024-01-27T09:56:45;16.68;;;4.08;;
84984;SDS011;75299;50.018;20.014;2024-01-27T10:00:04;10.95;;;3.50;;
84984;SDS011;75299;50.018;20.014;2024-01-27T10:03:27;16.25;;;4.35;;
84984;SDS011;75299;50.018;20.014;2024-01-27T10:06:45;15.85;;;3.78;;
84984;SDS011;75299;50.018;20.014;2024-01-27T10:10:05;9.88;;;3.08;;
84984;SDS011;75299;50.018;20.014;2024-01-27T10:13:24;12.10;;;3.58;;
84984;SDS011;75299;50.018;20.014;2024-01-27T10:16:42;9.73;;;3.30;;
84984;SDS011;75299;50.018;20.014;2024-01-27T10:20:01;18.55;;;4.00;;
84984;SDS011;75299;50.018;20.014;2024-01-27T10:23:23;15.10;;;3.75;;
84984;SDS011;75299;50.018;20.014;2024-01-27T10:26:41;17.45;;;3.85;;
84984;SDS011;75299;50.018;20.014;2024-01-27T10:30:01;9.90;;;3.73;;
84984;SDS011;75299;50.018;20.014;2024-01-27T10:33:22;12.50;;;4.43;;
84984;SDS011;75299;50.018;20.014;2024-01-27T10:36:41;19.13;;;3.60;;
84984;SDS011;75299;50.018;20.014;2024-01-27T10:40:02;13.85;;;3.83;;
84984;SDS011;75299;50.018;20.014;2024-01-27T10:43:24;13.58;;;3.10;;
84984;SDS011;75299;50.018;20.014;2024-01-27T10:46:44;15.38;;;3.40;;
84984;SDS011;75299;50.018;20.014;2024-01-27T10:50:03;13.90;;;3.98;;
84984;SDS011;75299;50.018;20.014;2024-01-27T10:53:24;14.68;;;3.83;;
84984;SDS011;75299;50.018;20.014;2024-01-27T10:56:43;11.75;;;3.85;;
84984;SDS011;75299;50.018;20.014;2024-01-27T11:00:03;13.68;;;3.90;;
84984;SDS011;75299;50.018;20.014;2024-01-27T11:03:25;14.90;;;4.90;;
84984;SDS011;75299;50.018;20.014;2024-01-27T11:06:46;14.35;;;4.55;;
84984;SDS011;75299;50.018;20.014;2024-01-27T11:10:05;14.00;;;4.78;;
84984;SDS011;75299;50.018;20.014;2024-01-27T11:13:28;15.30;;;4.28;;
84984;SDS011;75299;50.018;20.014;2024-01-27T11:16:49;16.05;;;4.23;;
84984;SDS011;75299;50.018;20.014;2024-01-27T11:20:12;15.58;;;4.75;;
84984;SDS011;75299;50.018;20.014;2024-01-27T11:23:34;19.18;;;5.10;;
84984;SDS011;75299;50.018;20.014;2024-01-27T11:27:00;11.05;;;4.25;;
84984;SDS011;75299;50.018;20.014;2024-01-27T11:30:26;14.78;;;5.25;;
84984;SDS011;75299;50.018;20.014;2024-01-27T11:33:50;12.68;;;4.75;;
84984;SDS011;75299;50.018;20.014;2024-01-27T11:37:13;14.00;;;4.75;;
84984;SDS011;75299;50.018;20.014;2024-01-27T11:40:43;17.90;;;5.28;;
84984;SDS011;75299;50.018;20.014;2024-01-27T11:47:18;15.73;;;5.20;;
84984;SDS011;75299;50.018;20.014;2024-01-27T11:50:38;13.18;;;4.95;;
84984;SDS011;75299;50.018;20.014;2024-01-27T11:53:58;19.48;;;5.78;;
84984;SDS011;75299;50.018;20.014;2024-01-27T11:57:16;14.80;;;5.08;;
84984;SDS011;75299;50.018;20.014;2024-01-27T12:00:34;16.05;;;4.58;;
84984;SDS011;75299;50.018;20.014;2024-01-27T12:03:52;13.03;;;4.75;;
84984;SDS011;75299;50.018;20.014;2024-01-27T12:07:11;20.03;;;5.78;;
84984;SDS011;75299;50.018;20.014;2024-01-27T12:10:31;16.28;;;5.75;;
84984;SDS011;75299;50.018;20.014;2024-01-27T12:13:48;14.53;;;5.30;;
84984;SDS011;75299;50.018;20.014;2024-01-27T12:17:06;15.78;;;5.08;;
84984;SDS011;75299;50.018;20.014;2024-01-27T12:20:25;21.75;;;5.78;;
84984;SDS011;75299;50.018;20.014;2024-01-27T12:23:50;18.15;;;5.25;;
84984;SDS011;75299;50.018;20.014;2024-01-27T12:27:10;15.08;;;5.65;;
84984;SDS011;75299;50.018;20.014;2024-01-27T12:30:30;14.93;;;5.08;;
84984;SDS011;75299;50.018;20.014;2024-01-27T12:33:51;15.25;;;5.68;;
84984;SDS011;75299;50.018;20.014;2024-01-27T12:37:13;20.03;;;5.53;;
84984;SDS011;75299;50.018;20.014;2024-01-27T12:40:33;15.30;;;5.20;;
84984;SDS011;75299;50.018;20.014;2024-01-27T12:43:55;14.98;;;5.25;;
84984;SDS011;75299;50.018;20.014;2024-01-27T12:47:14;23.25;;;6.35;;
84984;SDS011;75299;50.018;20.014;2024-01-27T12:50:32;17.68;;;6.45;;
84984;SDS011;75299;50.018;20.014;2024-01-27T12:53:54;19.53;;;6.10;;
84984;SDS011;75299;50.018;20.014;2024-01-27T12:57:12;17.10;;;5.13;;
84984;SDS011;75299;50.018;20.014;2024-01-27T13:00:31;15.43;;;5.20;;
84984;SDS011;75299;50.018;20.014;2024-01-27T13:03:50;17.18;;;5.20;;
84984;SDS011;75299;50.018;20.014;2024-01-27T13:07:09;15.88;;;5.25;;
84984;SDS011;75299;50.018;20.014;2024-01-27T13:10:27;17.20;;;6.25;;
84984;SDS011;75299;50.018;20.014;2024-01-27T13:13:45;15.18;;;4.98;;
84984;SDS011;75299;50.018;20.014;2024-01-27T13:17:04;14.80;;;5.53;;
84984;SDS011;75299;50.018;20.014;2024-01-27T13:20:23;12.90;;;4.98;;
84984;SDS011;75299;50.018;20.014;2024-01-27T13:23:42;12.50;;;5.98;;
84984;SDS011;75299;50.018;20.014;2024-01-27T13:27:01;16.83;;;6.83;;
84984;SDS011;75299;50.018;20.014;2024-01-27T13:30:21;16.43;;;4.95;;
84984;SDS011;75299;50.018;20.014;2024-01-27T13:33:39;14.15;;;5.15;;
84984;SDS011;75299;50.018;20.014;2024-01-27T13:36:59;13.53;;;4.48;;
84984;SDS011;75299;50.018;20.014;2024-01-27T13:40:18;15.85;;;5.95;;
84984;SDS011;75299;50.018;20.014;2024-01-27T13:43:37;20.33;;;6.38;;
84984;SDS011;75299;50.018;20.014;2024-01-27T13:46:57;18.30;;;6.18;;
84984;SDS011;75299;50.018;20.014;2024-01-27T13:50:17;18.15;;;5.93;;
84984;SDS011;75299;50.018;20.014;2024-01-27T13:53:39;17.85;;;6.38;;
84984;SDS011;75299;50.018;20.014;2024-01-27T13:56:57;14.03;;;5.63;;
84984;SDS011;75299;50.018;20.014;2024-01-27T14:00:18;15.90;;;6.40;;
84984;SDS011;75299;50.018;20.014;2024-01-27T14:03:37;18.15;;;6.48;;
84984;SDS011;75299;50.018;20.014;2024-01-27T14:06:55;17.20;;;6.33;;
84984;SDS011;75299;50.018;20.014;2024-01-27T14:10:15;19.50;;;6.68;;
84984;SDS011;75299;50.018;20.014;2024-01-27T14:13:33;21.58;;;6.70;;
84984;SDS011;75299;50.018;20.014;2024-01-27T14:16:52;18.80;;;5.90;;
84984;SDS011;75299;50.018;20.014;2024-01-27T14:20:12;16.35;;;5.65;;
84984;SDS011;75299;50.018;20.014;2024-01-27T14:23:31;21.45;;;6.48;;
84984;SDS011;75299;50.018;20.014;2024-01-27T14:26:49;37.88;;;18.48;;
84984;SDS011;75299;50.018;20.014;2024-01-27T14:30:07;18.58;;;6.80;;
84984;SDS011;75299;50.018;20.014;2024-01-27T14:33:29;13.55;;;6.08;;
84984;SDS011;75299;50.018;20.014;2024-01-27T14:36:47;16.98;;;5.98;;
84984;SDS011;75299;50.018;20.014;2024-01-27T14:40:12;17.65;;;6.58;;
84984;SDS011;75299;50.018;20.014;2024-01-27T14:43:32;14.78;;;6.55;;
84984;SDS011;75299;50.018;20.014;2024-01-27T14:46:51;13.98;;;5.68;;
84984;SDS011;75299;50.018;20.014;2024-01-27T14:50:09;14.03;;;5.48;;
84984;SDS011;75299;50.018;20.014;2024-01-27T14:53:28;10.35;;;4.90;;
84984;SDS011;75299;50.018;20.014;2024-01-27T14:56:47;12.15;;;4.88;;
84984;SDS011;75299;50.018;20.014;2024-01-27T15:00:07;15.93;;;6.63;;
84984;SDS011;75299;50.018;20.014;2024-01-27T15:03:27;12.33;;;5.63;;
84984;SDS011;75299;50.018;20.014;2024-01-27T15:06:46;14.70;;;6.45;;
84984;SDS011;75299;50.018;20.014;2024-01-27T15:10:06;15.93;;;5.20;;
84984;SDS011;75299;50.018;20.014;2024-01-27T15:13:24;11.28;;;4.90;;
84984;SDS011;75299;50.018;20.014;2024-01-27T15:16:42;9.18;;;4.55;;
84984;SDS011;75299;50.018;20.014;2024-01-27T15:20:01;13.18;;;5.40;;
84984;SDS011;75299;50.018;20.014;2024-01-27T15:23:23;11.80;;;5.30;;
84984;SDS011;75299;50.018;20.014;2024-01-27T15:26:42;11.73;;;4.98;;
84984;SDS011;75299;50.018;20.014;2024-01-27T15:30:04;12.05;;;5.68;;
84984;SDS011;75299;50.018;20.014;2024-01-27T15:33:24;13.58;;;5.08;;
84984;SDS011;75299;50.018;20.014;2024-01-27T15:36:44;14.05;;;5.00;;
84984;SDS011;75299;50.018;20.014;2024-01-27T15:40:02;10.30;;;5.15;;
84984;SDS011;75299;50.018;20.014;2024-01-27T15:43:22;10.53;;;5.00;;
84984;SDS011;75299;50.018;20.014;2024-01-27T15:46:40;14.30;;;6.10;;
84984;SDS011;75299;50.018;20.014;2024-01-27T15:49:58;11.45;;;5.58;;
84984;SDS011;75299;50.018;20.014;2024-01-27T15:53:19;12.45;;;6.15;;
84984;SDS011;75299;50.018;20.014;2024-01-27T15:56:36;13.73;;;5.75;;
84984;SDS011;75299;50.018;20.014;2024-01-27T15:59:55;13.03;;;5.43;;
84984;SDS011;75299;50.018;20.014;2024-01-27T16:03:14;14.35;;;6.00;;
84984;SDS011;75299;50.018;20.014;2024-01-27T16:06:33;11.63;;;6.00;;
84984;SDS011;75299;50.018;20.014;2024-01-27T16:09:52;14.05;;;6.75;;
84984;SDS011;75299;50.018;20.014;2024-01-27T16:13:11;16.33;;;6.83;;
84984;SDS011;75299;50.018;20.014;2024-01-27T16:16:29;15.23;;;6.98;;
84984;SDS011;75299;50.018;20.014;2024-01-27T16:19:47;17.73;;;7.20;;
84984;SDS011;75299;50.018;20.014;2024-01-27T16:23:06;20.08;;;8.18;;
84984;SDS011;75299;50.018;20.014;2024-01-27T16:26:24;16.60;;;6.70;;
84984;SDS011;75299;50.018;20.014;2024-01-27T16:29:42;15.28;;;6.88;;
84984;SDS011;75299;50.018;20.014;2024-01-27T16:33:01;16.30;;;7.40;;
84984;SDS011;75299;50.018;20.014;2024-01-27T16:36:20;16.13;;;7.93;;
84984;SDS011;75299;50.018;20.014;2024-01-27T16:39:38;16.55;;;7.93;;
84984;SDS011;75299;50.018;20.014;2024-01-27T16:42:55;15.98;;;8.03;;
84984;SDS011;75299;50.018;20.014;2024-01-27T16:46:13;19.95;;;7.95;;
84984;SDS011;75299;50.018;20.014;2024-01-27T16:49:32;17.03;;;7.40;;
84984;SDS011;75299;50.018;20.014;2024-01-27T16:52:50;21.95;;;8.93;;
84984;SDS011;75299;50.018;20.014;2024-01-27T16:56:08;18.98;;;8.63;;
84984;SDS011;75299;50.018;20.014;2024-01-27T16:59:26;22.58;;;9.20;;
84984;SDS011;75299;50.018;20.014;2024-01-27T17:02:46;18.65;;;8.88;;
84984;SDS011;75299;50.018;20.014;2024-01-27T17:06:05;16.30;;;7.95;;
84984;SDS011;75299;50.018;20.014;2024-01-27T17:09:24;16.65;;;8.08;;
84984;SDS011;75299;50.018;20.014;2024-01-27T17:12:42;18.88;;;7.98;;
84984;SDS011;75299;50.018;20.014;2024-01-27T17:16:00;19.10;;;7.60;;
84984;SDS011;75299;50.018;20.014;2024-01-27T17:19:20;17.83;;;8.30;;
84984;SDS011;75299;50.018;20.014;2024-01-27T17:22:39;22.63;;;9.13;;
84984;SDS011;75299;50.018;20.014;2024-01-27T17:25:57;17.03;;;7.38;;
84984;SDS011;75299;50.018;20.014;2024-01-27T17:29:15;19.63;;;8.48;;
84984;SDS011;75299;50.018;20.014;2024-01-27T17:32:33;16.60;;;7.58;;
84984;SDS011;75299;50.018;20.014;2024-01-27T17:35:52;19.55;;;8.58;;
84984;SDS011;75299;50.018;20.014;2024-01-27T17:39:11;23.40;;;9.05;;
84984;SDS011;75299;50.018;20.014;2024-01-27T17:42:30;21.18;;;8.30;;
84984;SDS011;75299;50.018;20.014;2024-01-27T17:45:48;21.20;;;9.30;;
84984;SDS011;75299;50.018;20.014;2024-01-27T17:49:07;22.58;;;9.18;;
84984;SDS011;75299;50.018;20.014;2024-01-27T17:52:25;22.40;;;9.15;;
84984;SDS011;75299;50.018;20.014;2024-01-27T17:55:44;25.40;;;9.88;;
84984;SDS011;75299;50.018;20.014;2024-01-27T17:59:02;22.03;;;9.48;;
84984;SDS011;75299;50.018;20.014;2024-01-27T18:02:24;19.73;;;10.20;;
84984;SDS011;75299;50.018;20.014;2024-01-27T18:05:42;23.23;;;10.28;;
84984;SDS011;75299;50.018;20.014;2024-01-27T18:09:02;23.20;;;10.05;;
84984;SDS011;75299;50.018;20.014;2024-01-27T18:12:20;27.35;;;11.13;;
84984;SDS011;75299;50.018;20.014;2024-01-27T18:15:39;25.95;;;11.68;;
84984;SDS011;75299;50.018;20.014;2024-01-27T18:18:57;30.30;;;12.35;;
84984;SDS011;75299;50.018;20.014;2024-01-27T18:22:15;26.10;;;11.28;;
84984;SDS011;75299;50.018;20.014;2024-01-27T18:25:33;30.73;;;11.28;;
84984;SDS011;75299;50.018;20.014;2024-01-27T18:28:51;39.55;;;11.98;;
84984;SDS011;75299;50.018;20.014;2024-01-27T18:32:09;29.65;;;14.13;;
84984;SDS011;75299;50.018;20.014;2024-01-27T18:35:28;26.83;;;11.45;;
84984;SDS011;75299;50.018;20.014;2024-01-27T18:38:47;29.48;;;11.45;;
84984;SDS011;75299;50.018;20.014;2024-01-27T18:42:05;34.93;;;11.63;;
84984;SDS011;75299;50.018;20.014;2024-01-27T18:45:23;28.30;;;11.58;;
84984;SDS011;75299;50.018;20.014;2024-01-27T18:48:43;28.55;;;11.73;;
84984;SDS011;75299;50.018;20.014;2024-01-27T18:52:02;35.43;;;11.95;;
84984;SDS011;75299;50.018;20.014;2024-01-27T18:55:21;31.63;;;12.43;;
84984;SDS011;75299;50.018;20.014;2024-01-27T18:58:41;30.68;;;11.10;;
84984;SDS011;75299;50.018;20.014;2024-01-27T19:01:59;34.05;;;11.70;;
84984;SDS011;75299;50.018;20.014;2024-01-27T19:05:18;33.58;;;11.55;;
84984;SDS011;75299;50.018;20.014;2024-01-27T19:08:38;26.75;;;10.08;;
84984;SDS011;75299;50.018;20.014;2024-01-27T19:11:59;29.13;;;10.30;;
84984;SDS011;75299;50.018;20.014;2024-01-27T19:15:17;28.35;;;11.18;;
84984;SDS011;75299;50.018;20.014;2024-01-27T19:18:37;27.90;;;11.10;;
84984;SDS011;75299;50.018;20.014;2024-01-27T19:21:55;31.63;;;10.78;;
84984;SDS011;75299;50.018;20.014;2024-01-27T19:25:13;30.75;;;10.53;;
84984;SDS011;75299;50.018;20.014;2024-01-27T19:28:32;27.90;;;9.45;;